Time;durP1;ratioP1;P1;durP2;ratioP2;P2;SDS_P1;SDS_P2;PMS_P1;PMS_P2;Temp;Humidity;BMP_temperature;BMP_pressure;BME280_temperature;BME280_humidity;BME280_pressure;Samples;Min_cycle;Max_cycle;Signal;HPM_P1;HPM_P2
2022/07/19 01:45:38;;;;;;;0.00;0.00;;;;;;;25.16;100.00;101583.59;2549372;54;52180;-66
2022/07/19 01:48:09;;;;;;;0.00;0.00;;;;;;;25.06;100.00;101577.63;2617091;54;20153;-66
2022/07/19 01:50:39;;;;;;;0.00;0.00;;;;;;;25.32;100.00;101583.59;2616787;54;20142;-66
2022/07/19 01:53:09;;;;;;;0.00;0.00;;;;;;;25.14;100.00;101585.59;2616808;54;20142;-66
2022/07/19 01:55:40;;;;;;;0.00;0.00;;;;;;;25.33;100.00;101582.59;2616466;54;20142;-66
2022/07/19 01:58:10;;;;;;;0.00;0.00;;;;;;;25.31;100.00;101581.97;2616742;54;20151;-67
2022/07/19 02:00:43;;;;;;;0.10;0.10;;;;;;;23.92;92.81;101580.81;2616551;54;20146;-66
2022/07/19 02:03:13;;;;;;;0.00;0.00;;;;;;;24.39;100.00;101584.75;2617018;39;20503;-66
2022/07/19 02:05:43;;;;;;;0.00;0.00;;;;;;;25.08;100.00;101580.94;2616610;54;20145;-65
2022/07/19 02:08:15;;;;;;;0.00;0.00;;;;;;;24.85;95.37;101575.44;2616268;54;20142;-66
2022/07/19 02:10:45;;;;;;;0.00;0.00;;;;;;;24.66;100.00;101581.00;2616385;54;20137;-66
2022/07/19 02:13:15;;;;;;;0.40;0.40;;;;;;;24.90;100.00;101583.75;2616677;47;20142;-66
2022/07/19 02:15:49;;;;;;;0.00;0.00;;;;;;;25.08;100.00;101586.25;2616515;54;20148;-66
2022/07/19 02:18:19;;;;;;;0.00;0.00;;;;;;;24.86;100.00;101581.59;2616698;54;20142;-66
2022/07/19 02:20:49;;;;;;;0.03;0.03;;;;;;;24.88;100.00;101590.19;2616518;54;20141;-66
2022/07/19 02:23:19;;;;;;;0.20;0.20;;;;;;;24.18;94.77;101579.84;2616606;54;20145;-65
2022/07/19 02:25:49;;;;;;;0.15;0.15;;;;;;;23.28;100.00;101588.13;2616401;54;20145;-66
2022/07/19 02:28:20;;;;;;;0.00;0.00;;;;;;;23.98;100.00;101583.69;2616251;54;20153;-66
2022/07/19 02:30:52;;;;;;;0.20;0.20;;;;;;;23.08;100.00;101593.75;2616546;54;20145;-66
2022/07/19 02:33:23;;;;;;;0.00;0.00;;;;;;;24.00;100.00;101596.78;2616430;54;20146;-66
2022/07/19 02:35:53;;;;;;;0.00;0.00;;;;;;;23.39;100.00;101594.19;2616452;54;20168;-66
2022/07/19 02:38:23;;;;;;;0.00;0.00;;;;;;;23.79;100.00;101595.34;2616440;54;20665;-66
2022/07/19 02:40:53;;;;;;;1.55;1.55;;;;;;;24.07;100.00;101590.69;2616163;54;20141;-66
2022/07/19 02:43:24;;;;;;;1.30;0.30;;;;;;;23.90;100.00;101591.59;2616359;54;20141;-66
2022/07/19 02:45:56;;;;;;;0.00;0.00;;;;;;;23.92;100.00;101594.09;2616562;54;20940;-67
2022/07/19 02:48:27;;;;;;;0.00;0.00;;;;;;;23.49;100.00;101595.78;2616945;54;20145;-67
2022/07/19 02:50:57;;;;;;;0.00;0.00;;;;;;;23.07;100.00;101603.50;2618223;54;20145;-66
2022/07/19 02:53:28;;;;;;;0.00;0.00;;;;;;;23.72;100.00;101591.66;2619534;54;20145;-66
2022/07/19 02:55:58;;;;;;;0.10;0.10;;;;;;;24.21;100.00;101594.59;2618057;54;20146;-67
2022/07/19 02:58:28;;;;;;;0.00;0.00;;;;;;;23.99;100.00;101589.84;2616737;39;20411;-67
2022/07/19 03:01:01;;;;;;;0.00;0.00;;;;;;;24.55;100.00;101592.78;2616215;54;20145;-66
2022/07/19 03:03:47;;;;;;;0.00;0.00;;;;;;;23.78;100.00;101599.00;2616395;54;20145;-66
2022/07/19 03:06:19;;;;;;;0.00;0.00;;;;;;;23.50;100.00;101592.16;2616701;39;20537;-66
2022/07/19 03:08:49;;;;;;;0.00;0.00;;;;;;;22.82;100.00;101604.25;2616215;54;20146;-66
2022/07/19 03:11:20;;;;;;;0.30;0.10;;;;;;;22.97;100.00;101602.75;2616151;54;20157;-66
2022/07/19 03:13:50;;;;;;;0.63;0.63;;;;;;;23.43;100.00;101598.25;2616253;54;20665;-66
2022/07/19 03:16:23;;;;;;;0.00;0.00;;;;;;;23.52;100.00;101595.47;2616398;54;20141;-67
2022/07/19 03:18:53;;;;;;;0.00;0.00;;;;;;;23.95;100.00;101597.25;2615620;54;21029;-68
2022/07/19 03:21:24;;;;;;;0.00;0.00;;;;;;;23.72;100.00;101604.91;2615911;54;20141;-67
2022/07/19 03:23:54;;;;;;;0.10;0.10;;;;;;;23.37;100.00;101607.59;2616209;54;20141;-66
2022/07/19 03:26:24;;;;;;;0.00;0.00;;;;;;;23.55;100.00;101607.59;2616341;47;20153;-67
2022/07/19 03:28:55;;;;;;;0.05;0.05;;;;;;;24.17;100.00;101601.22;2616055;54;20684;-67
2022/07/19 03:31:28;;;;;;;0.00;0.00;;;;;;;23.82;100.00;101606.63;2616373;54;20141;-67
2022/07/19 03:33:58;;;;;;;0.10;0.10;;;;;;;22.99;100.00;101607.91;2616388;54;20164;-67
2022/07/19 03:36:28;;;;;;;0.00;0.00;;;;;;;21.29;100.00;101602.91;2616254;54;20142;-66
2022/07/19 03:38:59;;;;;;;1.25;0.32;;;;;;;20.08;100.00;101610.03;2615758;54;20141;-67
2022/07/19 03:41:29;;;;;;;0.30;0.30;;;;;;;19.69;100.00;101605.50;2616233;54;20148;-65
2022/07/19 03:43:59;;;;;;;0.10;0.10;;;;;;;19.16;100.00;101605.50;2616374;39;20637;-66
2022/07/19 03:46:32;;;;;;;0.13;0.13;;;;;;;19.29;100.00;101610.59;2616215;54;21004;-67
2022/07/19 03:49:02;;;;;;;0.00;0.00;;;;;;;19.34;100.00;101612.84;2615926;54;20145;-66
2022/07/19 03:51:33;;;;;;;0.22;0.22;;;;;;;19.21;100.00;101612.19;2616204;54;20141;-65
2022/07/19 03:54:03;;;;;;;0.30;0.30;;;;;;;19.40;100.00;101614.97;2616559;39;20558;-66
2022/07/19 03:56:33;;;;;;;0.32;0.32;;;;;;;19.51;100.00;101610.50;2616250;39;20561;-67
2022/07/19 03:59:04;;;;;;;0.25;0.25;;;;;;;19.71;100.00;101610.63;2616061;54;20142;-66
2022/07/19 04:01:37;;;;;;;0.20;0.20;;;;;;;20.02;100.00;101605.28;2616189;54;20149;-66
2022/07/19 04:04:08;;;;;;;0.00;0.00;;;;;;;20.81;100.00;101611.56;2616094;54;20164;-66
2022/07/19 04:06:38;;;;;;;0.00;0.00;;;;;;;21.63;100.00;101608.53;2616240;54;20748;-65
2022/07/19 04:09:09;;;;;;;0.00;0.00;;;;;;;22.03;100.00;101611.81;2616022;54;20142;-67
2022/07/19 04:11:39;;;;;;;0.30;0.10;;;;;;;22.63;100.00;101605.16;2616228;54;20149;-66
2022/07/19 04:14:09;;;;;;;0.10;0.10;;;;;;;23.22;100.00;101614.41;2615786;54;20145;-66
2022/07/19 04:16:42;;;;;;;0.00;0.00;;;;;;;23.40;100.00;101614.38;2616345;39;20555;-68
2022/07/19 04:19:12;;;;;;;0.00;0.00;;;;;;;23.28;100.00;101606.69;2616090;54;20142;-67
2022/07/19 04:21:42;;;;;;;0.35;0.35;;;;;;;23.53;100.00;101597.16;2616079;50;20149;-67
2022/07/19 04:24:13;;;;;;;0.00;0.00;;;;;;;23.55;100.00;101603.09;2616333;39;20650;-67
2022/07/19 04:26:44;;;;;;;0.00;0.00;;;;;;;24.00;100.00;101604.72;2615972;54;20142;-67
2022/07/19 04:29:14;;;;;;;0.00;0.00;;;;;;;24.33;100.00;101603.13;2616354;54;20591;-67
2022/07/19 04:31:47;;;;;;;0.00;0.00;;;;;;;24.45;100.00;101613.28;2617803;39;20551;-68
2022/07/19 04:34:17;;;;;;;0.00;0.00;;;;;;;25.00;100.00;101612.78;2616952;54;20167;-66
2022/07/19 04:36:48;;;;;;;0.03;0.03;;;;;;;24.81;90.40;101621.84;2616958;39;20533;-66
2022/07/19 04:39:18;;;;;;;0.00;0.00;;;;;;;25.38;100.00;101628.13;2616287;54;20141;-67
2022/07/19 04:41:48;;;;;;;0.10;0.10;;;;;;;25.91;100.00;101627.63;2615929;54;20144;-66
2022/07/19 04:44:18;;;;;;;1.55;0.75;;;;;;;25.95;100.00;101630.75;2615289;54;20204;-67
2022/07/19 04:46:51;;;;;;;0.00;0.00;;;;;;;25.95;100.00;101622.78;2615381;54;20142;-68
2022/07/19 04:49:21;;;;;;;0.00;0.00;;;;;;;26.12;100.00;101627.03;2615434;54;20149;-66
2022/07/19 04:51:52;;;;;;;0.10;0.10;;;;;;;25.93;84.75;101630.09;2615475;54;20184;-66
2022/07/19 04:54:22;;;;;;;0.00;0.00;;;;;;;25.56;93.18;101634.13;2615500;39;20633;-67
2022/07/19 04:56:52;;;;;;;0.13;0.10;;;;;;;25.39;100.00;101627.13;2615941;54;20141;-67
2022/07/19 04:59:22;;;;;;;0.00;0.00;;;;;;;25.66;96.43;101635.78;2616612;54;20148;-67
2022/07/19 05:01:55;;;;;;;0.00;0.00;;;;;;;25.52;97.94;101632.78;2616628;54;20146;-67
2022/07/19 05:04:25;;;;;;;0.00;0.00;;;;;;;25.80;100.00;101633.25;2616037;54;20142;-67
2022/07/19 05:06:56;;;;;;;0.00;0.00;;;;;;;26.00;94.82;101631.06;2614949;54;20150;-66
2022/07/19 05:09:27;;;;;;;0.00;0.00;;;;;;;26.00;96.09;101631.06;2613452;54;20264;-66
2022/07/19 05:11:58;;;;;;;0.00;0.00;;;;;;;26.48;97.90;101632.78;2613749;39;20571;-68
2022/07/19 05:14:28;;;;;;;0.00;0.00;;;;;;;26.22;95.17;101633.03;2613319;54;20677;-67
2022/07/19 05:17:01;;;;;;;0.00;0.00;;;;;;;26.37;95.26;101633.97;2613032;54;20142;-67
2022/07/19 05:19:31;;;;;;;0.00;0.00;;;;;;;26.21;83.99;101639.34;2613665;54;20161;-66
2022/07/19 05:22:02;;;;;;;0.00;0.00;;;;;;;26.31;79.95;101633.84;2614507;54;20142;-66
2022/07/19 05:24:32;;;;;;;0.00;0.00;;;;;;;26.10;96.80;101642.34;2615141;54;20141;-68
2022/07/19 05:27:02;;;;;;;0.90;0.28;;;;;;;26.08;85.54;101629.22;2615197;54;20160;-67
2022/07/19 05:29:32;;;;;;;0.00;0.00;;;;;;;25.78;92.28;101637.09;2615737;47;20142;-67
2022/07/19 05:32:06;;;;;;;0.77;0.47;;;;;;;26.43;97.35;101637.81;2615336;54;20169;-68
2022/07/19 05:34:36;;;;;;;0.00;0.00;;;;;;;27.06;93.42;101634.97;2616515;54;20142;-67
2022/07/19 05:37:06;;;;;;;0.20;0.20;;;;;;;26.67;76.42;101634.19;2616696;54;20141;-67
2022/07/19 05:39:36;;;;;;;0.00;0.00;;;;;;;26.99;89.39;101629.53;2616716;54;20157;-68
2022/07/19 05:42:07;;;;;;;0.00;0.00;;;;;;;26.38;72.75;101635.66;2617099;54;20164;-67
2022/07/19 05:44:37;;;;;;;0.00;0.00;;;;;;;26.96;88.76;101637.88;2618527;54;20744;-68
2022/07/19 05:47:10;;;;;;;0.00;0.00;;;;;;;26.91;75.79;101634.09;2618534;54;20249;-68
2022/07/19 05:49:40;;;;;;;0.00;0.00;;;;;;;27.24;86.66;101651.50;2617144;39;20204;-67
2022/07/19 05:52:11;;;;;;;0.28;0.28;;;;;;;26.85;69.62;101645.44;2616706;54;20142;-67
2022/07/19 05:54:41;;;;;;;0.00;0.00;;;;;;;27.08;77.13;101654.31;2616662;54;20209;-68
2022/07/19 05:57:11;;;;;;;0.00;0.00;;;;;;;27.20;83.43;101622.75;2616565;54;20142;-67
2022/07/19 05:59:41;;;;;;;0.00;0.00;;;;;;;27.23;67.20;101641.88;2616461;54;20148;-68
2022/07/19 06:02:14;;;;;;;1.42;1.33;;;;;;;26.32;68.20;101644.31;2616591;54;20157;-67
2022/07/19 06:04:45;;;;;;;0.03;0.03;;;;;;;26.27;67.98;101643.19;2616545;54;20145;-67
2022/07/19 06:07:15;;;;;;;1.55;0.65;;;;;;;26.46;65.61;101642.78;2616490;54;20228;-67
2022/07/19 06:09:45;;;;;;;0.10;0.10;;;;;;;25.63;64.55;101644.09;2616596;54;20148;-67
2022/07/19 06:12:16;;;;;;;0.22;0.22;;;;;;;25.81;65.54;101640.25;2616616;54;20141;-67
2022/07/19 06:14:46;;;;;;;0.30;0.30;;;;;;;25.84;63.94;101633.78;2619596;54;20149;-67
2022/07/19 06:17:19;;;;;;;0.00;0.00;;;;;;;25.70;64.57;101645.91;2617070;54;20677;-67
2022/07/19 06:19:49;;;;;;;0.00;0.00;;;;;;;25.56;67.97;101642.09;2616687;54;20597;-67
2022/07/19 06:22:20;;;;;;;0.22;0.15;;;;;;;25.81;67.04;101642.91;2616736;54;20689;-67
2022/07/19 06:24:50;;;;;;;0.47;0.47;;;;;;;26.01;65.18;101630.91;2616656;50;20141;-66
2022/07/19 06:27:20;;;;;;;0.63;0.30;;;;;;;25.71;67.20;101644.09;2616510;54;20164;-67
2022/07/19 06:29:51;;;;;;;0.00;0.00;;;;;;;26.07;68.62;101637.38;2616596;54;20150;-67
2022/07/19 06:32:23;;;;;;;0.00;0.00;;;;;;;26.05;65.20;101639.38;2616581;54;20689;-68
2022/07/19 06:34:54;;;;;;;0.00;0.00;;;;;;;26.30;67.26;101638.34;2616567;54;20146;-67
2022/07/19 06:37:24;;;;;;;0.28;0.10;;;;;;;26.19;64.32;101644.03;2616440;54;20146;-67
2022/07/19 06:39:54;;;;;;;0.45;0.32;;;;;;;26.77;64.86;101648.09;2616589;39;20630;-66
2022/07/19 06:42:24;;;;;;;0.00;0.00;;;;;;;26.93;70.14;101642.72;2616506;54;20153;-66
2022/07/19 06:44:55;;;;;;;0.00;0.00;;;;;;;26.82;61.62;101635.09;2616211;54;20196;-68
2022/07/19 06:47:28;;;;;;;0.20;0.13;;;;;;;26.87;64.18;101641.59;2616623;54;20141;-67
2022/07/19 06:49:59;;;;;;;0.08;0.08;;;;;;;26.96;66.60;101642.38;2616709;39;20541;-67
2022/07/19 06:52:50;;;;;;;0.08;0.08;;;;;;;26.38;64.78;101640.97;2616482;54;20149;-68
2022/07/19 06:55:20;;;;;;;0.00;0.00;;;;;;;26.59;64.50;101632.41;2615978;50;20148;-67
2022/07/19 06:57:50;;;;;;;0.00;0.00;;;;;;;26.38;63.46;101635.66;2616435;54;20149;-67
2022/07/19 07:00:21;;;;;;;0.10;0.10;;;;;;;26.47;68.96;101641.78;2616392;54;20142;-67
2022/07/19 07:02:54;;;;;;;0.32;0.22;;;;;;;26.45;62.63;101638.44;2616421;54;20165;-67
2022/07/19 07:05:24;;;;;;;0.00;0.00;;;;;;;26.60;62.53;101633.22;2617129;39;20266;-67
2022/07/19 07:07:54;;;;;;;0.00;0.00;;;;;;;26.67;66.12;101640.34;2617211;39;20504;-67
2022/07/19 07:10:25;;;;;;;0.25;0.05;;;;;;;26.48;61.69;101646.91;2616929;39;20568;-68
2022/07/19 07:12:55;;;;;;;0.10;0.10;;;;;;;26.31;59.14;101650.66;2616442;54;20762;-66
2022/07/19 07:15:25;;;;;;;0.40;0.40;;;;;;;26.37;62.31;101647.28;2616371;39;20428;-66
2022/07/19 07:17:58;;;;;;;0.10;0.10;;;;;;;26.27;61.42;101644.00;2616691;39;20621;-67
2022/07/19 07:20:28;;;;;;;0.10;0.10;;;;;;;26.04;60.67;101648.34;2616357;54;20141;-67
2022/07/19 07:22:59;;;;;;;0.00;0.00;;;;;;;26.19;62.74;101641.38;2616189;54;20141;-66
2022/07/19 07:25:29;;;;;;;0.32;0.20;;;;;;;25.98;60.93;101649.88;2616225;54;20140;-66
2022/07/19 07:27:59;;;;;;;0.10;0.03;;;;;;;26.14;62.19;101642.84;2616271;54;20142;-66
2022/07/19 07:30:29;;;;;;;0.00;0.00;;;;;;;26.39;64.32;101645.31;2616138;54;20149;-66
2022/07/19 07:33:02;;;;;;;0.32;0.32;;;;;;;26.16;63.60;101649.66;2616424;54;20142;-66
2022/07/19 07:35:32;;;;;;;0.17;0.17;;;;;;;26.31;62.39;101647.16;2616219;47;20150;-66
2022/07/19 07:38:03;;;;;;;0.00;0.00;;;;;;;26.48;63.67;101646.91;2616316;54;20506;-66
2022/07/19 07:40:33;;;;;;;0.30;0.30;;;;;;;26.37;63.60;101633.97;2616492;39;20608;-67
2022/07/19 07:43:03;;;;;;;0.20;0.17;;;;;;;26.44;59.92;101645.59;2616715;39;20538;-67
2022/07/19 07:45:34;;;;;;;0.10;0.10;;;;;;;26.13;60.90;101657.97;2616151;54;20197;-67
2022/07/19 07:48:08;;;;;;;0.43;0.20;;;;;;;26.17;64.05;101643.34;2616371;54;20142;-67
2022/07/19 07:50:38;;;;;;;0.43;0.43;;;;;;;26.38;62.37;101640.97;2616529;39;20565;-67
2022/07/19 07:53:08;;;;;;;0.10;0.10;;;;;;;26.48;61.99;101646.91;2616238;54;20141;-67
2022/07/19 07:55:39;;;;;;;0.32;0.32;;;;;;;26.48;61.83;101646.91;2616042;54;20196;-67
2022/07/19 07:58:11;;;;;;;0.28;0.28;;;;;;;26.38;61.28;101653.44;2616620;54;20230;-66
2022/07/19 08:00:42;;;;;;;0.30;0.30;;;;;;;26.11;62.55;101644.03;2616256;54;20662;-66
2022/07/19 08:03:16;;;;;;;0.30;0.30;;;;;;;26.10;63.03;101653.00;2616294;54;20142;-66
2022/07/19 08:05:47;;;;;;;0.50;0.50;;;;;;;26.12;63.10;101637.69;2616310;39;20598;-67
2022/07/19 08:08:17;;;;;;;2.38;0.57;;;;;;;26.45;63.74;101647.25;2617126;54;20654;-67
2022/07/19 08:10:48;;;;;;;0.45;0.30;;;;;;;26.69;62.26;101653.47;2617407;47;20142;-66
2022/07/19 08:13:19;;;;;;;0.22;0.22;;;;;;;26.86;60.96;101655.09;2616989;54;20142;-66
2022/07/19 08:15:49;;;;;;;0.00;0.00;;;;;;;26.96;61.49;101650.38;2616829;54;20209;-66
2022/07/19 08:18:22;;;;;;;0.70;0.35;;;;;;;27.19;60.51;101651.22;2617183;54;20707;-67
2022/07/19 08:20:52;;;;;;;0.03;0.03;;;;;;;27.05;59.08;101649.31;2617273;39;20663;-67
2022/07/19 08:23:22;;;;;;;0.20;0.20;;;;;;;27.17;59.17;101653.22;2616926;54;20684;-67
2022/07/19 08:25:52;;;;;;;0.40;0.28;;;;;;;27.22;58.11;101645.53;2616773;54;20145;-66
2022/07/19 08:28:23;;;;;;;11.82;0.32;;;;;;;27.06;59.47;101648.31;2616971;54;20141;-66
2022/07/19 08:30:53;;;;;;;0.30;0.30;;;;;;;27.12;59.24;101649.44;2616785;54;20142;-66
2022/07/19 08:33:44;;;;;;;0.17;0.17;;;;;;;27.06;59.24;101653.63;2618306;54;20141;-66
2022/07/19 08:36:14;;;;;;;4.47;1.10;;;;;;;27.11;59.13;101648.63;2619075;39;20405;-66
2022/07/19 08:38:46;;;;;;;0.40;0.20;;;;;;;27.31;58.10;101647.13;2617095;54;20146;-66
2022/07/19 08:41:17;;;;;;;0.30;0.30;;;;;;;27.34;59.14;101644.09;2616918;54;20148;-66
2022/07/19 08:43:47;;;;;;;0.40;0.40;;;;;;;27.20;58.78;101644.06;2616829;54;20227;-66
2022/07/19 08:46:17;;;;;;;0.20;0.00;;;;;;;27.35;59.12;101643.09;2616893;54;20149;-66
2022/07/19 08:48:51;;;;;;;0.10;0.10;;;;;;;27.50;58.06;101642.34;2616934;46;20245;-66
2022/07/19 08:51:23;;;;;;;0.00;0.00;;;;;;;27.60;61.03;101642.94;2616931;54;20148;-66
2022/07/19 08:53:53;;;;;;;0.20;0.20;;;;;;;27.33;59.45;101636.28;2616891;39;20499;-66
2022/07/19 08:59:06;;;;;;;1.27;0.32;;;;;;;27.23;61.10;101647.19;2617075;54;20277;-66
2022/07/19 09:01:37;;;;;;;0.00;0.00;;;;;;;27.40;60.36;101631.91;2616721;54;20225;-66
2022/07/19 09:04:19;;;;;;;0.57;0.55;;;;;;;27.22;59.58;101634.88;2616841;51;20142;-66
2022/07/19 09:06:52;;;;;;;0.10;0.10;;;;;;;27.33;59.61;101636.28;2616907;54;20142;-67
2022/07/19 09:09:24;;;;;;;0.20;0.20;;;;;;;27.20;59.57;101636.88;2616861;54;20134;-67
2022/07/19 09:11:55;;;;;;;0.75;0.75;;;;;;;27.14;59.35;101634.94;2616892;54;20149;-67
2022/07/19 09:14:28;;;;;;;0.30;0.30;;;;;;;27.39;59.89;101639.06;2616734;54;20142;-67
2022/07/19 09:17:02;;;;;;;0.00;0.00;;;;;;;27.68;61.98;101637.53;2615985;54;20224;-67
2022/07/19 09:19:39;;;;;;;0.70;0.60;;;;;;;27.55;58.86;101630.16;2616370;54;20221;-67
2022/07/19 09:22:11;;;;;;;0.22;0.22;;;;;;;27.55;59.96;101634.63;2616908;54;20133;-67
2022/07/19 09:24:44;;;;;;;0.75;0.75;;;;;;;27.31;62.00;101633.81;2616575;54;20142;-67
2022/07/19 09:27:16;;;;;;;1.45;1.35;;;;;;;27.29;62.24;101625.16;2616589;54;20150;-67
2022/07/19 09:29:49;;;;;;;3.85;2.42;;;;;;;27.37;61.52;101638.41;2616920;39;20197;-66
2022/07/19 09:32:22;;;;;;;1.17;0.35;;;;;;;27.29;61.87;101634.97;2616712;54;20141;-66
2022/07/19 09:34:57;;;;;;;2.78;0.82;;;;;;;27.47;60.52;101632.88;2617022;54;20681;-66
2022/07/19 09:37:29;;;;;;;0.10;0.10;;;;;;;27.28;62.78;101634.16;2616859;54;20142;-67
2022/07/19 09:40:01;;;;;;;0.30;0.30;;;;;;;27.14;62.29;101628.75;2616646;54;20142;-68
2022/07/19 09:42:38;;;;;;;0.20;0.20;;;;;;;27.38;61.12;101634.75;2616322;54;20240;-67
2022/07/19 09:45:10;;;;;;;4.43;1.63;;;;;;;27.33;60.44;101625.63;2617864;54;20197;-66
2022/07/19 09:47:42;;;;;;;3.08;0.32;;;;;;;27.24;60.19;101634.72;2619074;54;20179;-67
2022/07/19 09:50:17;;;;;;;4.68;1.35;;;;;;;27.67;61.21;101628.69;2617424;39;20530;-67
2022/07/19 09:52:48;;;;;;;0.00;0.00;;;;;;;27.65;61.48;101625.38;2617280;54;20153;-67
2022/07/19 09:55:20;;;;;;;0.28;0.28;;;;;;;27.65;61.52;101624.53;2617293;54;20171;-66
2022/07/19 09:57:52;;;;;;;0.20;0.20;;;;;;;27.33;62.48;101634.44;2616606;54;20153;-67
2022/07/19 10:00:25;;;;;;;1.75;0.63;;;;;;;27.39;61.02;101631.06;2616944;54;20142;-67
2022/07/19 10:02:57;;;;;;;0.00;0.00;;;;;;;27.60;60.69;101618.94;2617173;47;20148;-67
2022/07/19 10:05:32;;;;;;;0.88;0.88;;;;;;;27.44;61.98;101620.69;2616998;54;20148;-68
2022/07/19 10:08:04;;;;;;;0.10;0.10;;;;;;;27.62;63.88;101620.41;2616572;54;20148;-66
2022/07/19 10:10:34;;;;;;;2.72;0.52;;;;;;;27.83;63.67;101617.03;2615876;54;20149;-68
2022/07/19 10:13:07;;;;;;;0.55;0.55;;;;;;;27.86;63.10;101603.31;2615538;54;20149;-67
2022/07/19 10:15:43;;;;;;;1.75;0.63;;;;;;;27.98;62.35;101609.88;2615691;54;20164;-67
2022/07/19 10:18:20;;;;;;;0.32;0.32;;;;;;;27.88;59.58;101610.13;2616542;54;20677;-68
2022/07/19 10:20:53;;;;;;;0.00;0.00;;;;;;;27.90;60.80;101612.63;2616042;54;20164;-67
2022/07/19 10:23:31;;;;;;;0.08;0.05;;;;;;;28.10;59.73;101611.09;2615971;54;20150;-67
2022/07/19 10:26:01;;;;;;;1.00;0.30;;;;;;;28.05;60.47;101597.44;2616787;39;20499;-67
2022/07/19 10:28:35;;;;;;;0.10;0.10;;;;;;;27.97;60.61;101602.88;2616267;54;20164;-67
2022/07/19 10:31:30;;;;;;;0.13;0.13;;;;;;;27.82;60.72;101610.03;2616225;54;20142;-67
2022/07/19 10:34:04;;;;;;;0.30;0.15;;;;;;;27.92;62.45;101594.59;2615862;54;20142;-66
2022/07/19 10:36:39;;;;;;;0.65;0.55;;;;;;;27.87;63.20;101591.66;2615851;54;20605;-66
2022/07/19 10:39:26;;;;;;;0.00;0.00;;;;;;;27.81;59.16;101597.69;2615885;54;20202;-67
2022/07/19 10:42:16;;;;;;;0.20;0.20;;;;;;;28.22;61.23;101582.91;2615752;54;20233;-67
2022/07/19 10:45:15;;;;;;;1.98;1.88;;;;;;;28.32;61.55;101591.50;2615850;54;20196;-67
2022/07/19 10:48:08;;;;;;;0.00;0.00;;;;;;;28.44;60.32;101593.66;2615854;54;20752;-67
2022/07/19 10:51:00;;;;;;;0.52;0.47;;;;;;;28.31;61.07;101584.47;2615892;54;20658;-68
2022/07/19 10:54:05;;;;;;;0.85;0.75;;;;;;;28.33;61.21;101581.59;2615868;54;20236;-68
2022/07/19 10:56:38;;;;;;;1.65;0.10;;;;;;;28.21;60.95;101588.44;2614638;54;20141;-67
2022/07/19 10:59:38;;;;;;;0.35;0.30;;;;;;;27.80;59.96;101586.22;2614678;54;20149;-67
2022/07/19 11:02:08;;;;;;;0.22;0.22;;;;;;;27.55;62.32;101582.16;2615206;54;20142;-67
2022/07/19 11:04:59;;;;;;;0.52;0.50;;;;;;;27.56;64.37;101580.31;2615678;54;20164;-68
2022/07/19 11:07:29;;;;;;;0.55;0.52;;;;;;;27.65;62.30;101574.69;2615838;54;20142;-67
2022/07/19 11:10:03;;;;;;;0.30;0.30;;;;;;;27.43;63.44;101573.72;2616076;39;20561;-67
2022/07/19 11:12:36;;;;;;;0.32;0.15;;;;;;;27.65;64.59;101574.69;2615495;54;20148;-67
2022/07/19 11:15:11;;;;;;;2.25;0.73;;;;;;;27.56;64.98;101578.47;2614994;54;20677;-67
2022/07/19 11:18:00;;;;;;;0.00;0.00;;;;;;;27.71;63.16;101575.81;2615138;54;20163;-67
2022/07/19 11:20:32;;;;;;;0.52;0.50;;;;;;;27.43;64.56;101579.06;2615374;54;20142;-67
2022/07/19 11:23:04;;;;;;;0.30;0.30;;;;;;;27.68;67.14;101574.34;2615935;54;20142;-66
2022/07/19 11:25:39;;;;;;;0.10;0.10;;;;;;;28.13;64.12;101565.34;2617797;54;20141;-67
2022/07/19 11:28:21;;;;;;;0.00;0.00;;;;;;;28.13;64.53;101564.50;2617581;54;20141;-67
2022/07/19 11:30:52;;;;;;;0.10;0.10;;;;;;;28.08;65.08;101561.56;2616262;54;20141;-68
2022/07/19 11:33:23;;;;;;;0.10;0.10;;;;;;;28.17;62.72;101555.13;2618218;54;20156;-67
2022/07/19 11:35:58;;;;;;;0.22;0.22;;;;;;;28.34;61.70;101553.91;2618564;39;20569;-67
2022/07/19 11:38:37;;;;;;;0.00;0.00;;;;;;;28.58;63.01;101558.91;2616690;54;20141;-67
2022/07/19 11:41:16;;;;;;;0.20;0.20;;;;;;;28.22;64.33;101555.41;2617722;46;20266;-66
2022/07/19 11:43:46;;;;;;;0.22;0.22;;;;;;;28.22;61.32;101560.75;2617077;46;20733;-66
2022/07/19 11:46:19;;;;;;;0.10;0.10;;;;;;;27.92;61.93;101546.59;2617408;54;20164;-67
2022/07/19 11:48:51;;;;;;;0.03;0.03;;;;;;;28.11;64.91;101556.72;2617064;54;20142;-67
2022/07/19 11:51:21;;;;;;;0.10;0.10;;;;;;;28.06;64.27;101555.56;2616794;54;20707;-67
2022/07/19 11:53:54;;;;;;;0.22;0.22;;;;;;;28.05;61.96;101549.41;2616964;46;20148;-67
2022/07/19 11:56:29;;;;;;;0.73;0.73;;;;;;;28.14;59.39;101544.81;2616946;54;20148;-67
2022/07/19 11:59:01;;;;;;;0.13;0.13;;;;;;;28.23;61.51;101555.22;2616992;47;20141;-67
2022/07/19 12:01:33;;;;;;;0.47;0.20;;;;;;;28.03;63.37;101548.78;2616863;54;20233;-66
2022/07/19 12:04:06;;;;;;;3.95;1.75;;;;;;;28.14;63.50;101536.81;2617498;39;20562;-66
2022/07/19 12:06:40;;;;;;;0.10;0.10;;;;;;;28.29;60.18;101546.44;2617109;54;20232;-67
2022/07/19 12:09:13;;;;;;;0.00;0.00;;;;;;;28.39;58.76;101548.84;2617053;46;20163;-67
2022/07/19 12:11:48;;;;;;;0.10;0.00;;;;;;;28.55;60.87;101540.59;2617028;54;20686;-67
2022/07/19 12:14:23;;;;;;;0.60;0.60;;;;;;;28.83;58.47;101535.38;2616997;54;20163;-67
2022/07/19 12:17:12;;;;;;;0.10;0.10;;;;;;;29.54;55.73;101546.84;2616934;54;20236;-67
2022/07/19 12:19:43;;;;;;;0.30;0.30;;;;;;;30.21;49.40;101545.19;2616785;39;20204;-67
2022/07/19 12:22:32;;;;;;;0.17;0.17;;;;;;;31.93;49.23;101528.19;2616190;54;20176;-68
2022/07/19 12:25:02;;;;;;;0.08;0.08;;;;;;;32.46;49.17;101533.31;2616369;54;20148;-68
2022/07/19 12:27:35;;;;;;;0.25;0.25;;;;;;;31.87;46.58;101539.78;2616973;54;20149;-68
2022/07/19 12:30:07;;;;;;;0.35;0.17;;;;;;;31.97;47.56;101533.97;2616386;54;20141;-68
2022/07/19 12:32:41;;;;;;;3.72;0.52;;;;;;;32.60;46.29;101524.16;2616452;54;20141;-68
2022/07/19 12:35:14;;;;;;;0.13;0.13;;;;;;;33.27;43.99;101530.69;2616417;54;20142;-68
2022/07/19 12:37:46;;;;;;;0.40;0.40;;;;;;;33.20;43.35;101529.94;2616496;47;20180;-68
2022/07/19 12:40:22;;;;;;;0.08;0.08;;;;;;;34.05;43.37;101514.75;2616730;54;20164;-68
2022/07/19 12:42:59;;;;;;;0.20;0.20;;;;;;;33.46;45.47;101518.94;2616663;54;20141;-67
2022/07/19 12:45:32;;;;;;;0.20;0.20;;;;;;;33.40;43.68;101527.88;2616428;54;20196;-67
2022/07/19 12:48:03;;;;;;;0.20;0.20;;;;;;;32.56;45.49;101516.75;2616651;54;20164;-67
2022/07/19 12:50:35;;;;;;;0.15;0.15;;;;;;;32.73;47.29;101524.09;2616435;54;20141;-67
2022/07/19 12:53:10;;;;;;;0.55;0.55;;;;;;;32.69;46.98;101511.31;2616255;47;20153;-68
2022/07/19 12:55:43;;;;;;;0.40;0.40;;;;;;;32.54;46.83;101514.25;2616526;54;20401;-67
2022/07/19 12:59:38;;;;;;;0.00;0.00;;;;;;;33.39;44.77;101510.91;2617012;54;20221;-66
2022/07/19 13:01:12;;;;;;;0.15;0.15;;;;;;;32.31;47.10;101516.66;2616986;54;20142;-67
2022/07/19 13:03:43;;;;;;;0.15;0.15;;;;;;;32.42;45.60;101502.53;2616834;54;20142;-67
2022/07/19 13:06:13;;;;;;;0.20;0.20;;;;;;;31.71;48.18;101504.50;2617064;54;20141;-66
2022/07/19 13:08:43;;;;;;;0.00;0.00;;;;;;;32.21;49.54;101502.91;2616960;47;20141;-66
2022/07/19 13:11:14;;;;;;;0.00;0.00;;;;;;;33.33;47.09;101500.22;2616678;54;20149;-67
2022/07/19 13:13:47;;;;;;;0.10;0.10;;;;;;;32.92;47.10;101506.16;2616706;54;20164;-66
2022/07/19 13:16:17;;;;;;;0.25;0.25;;;;;;;32.22;49.02;101507.25;2616362;54;20150;-66
2022/07/19 13:18:49;;;;;;;0.52;0.52;;;;;;;32.38;48.82;101504.84;2616287;54;20148;-68
2022/07/19 13:21:21;;;;;;;0.10;0.05;;;;;;;33.34;45.56;101509.97;2615924;54;20146;-68
2022/07/19 13:23:51;;;;;;;0.40;0.40;;;;;;;32.29;47.16;101508.03;2618916;39;20414;-66
2022/07/19 13:26:28;;;;;;;0.52;0.25;;;;;;;32.26;45.91;101503.09;2618668;54;20141;-67
2022/07/19 13:29:01;;;;;;;0.30;0.30;;;;;;;31.90;47.31;101504.44;2616401;54;20153;-67
2022/07/19 13:31:31;;;;;;;2.15;1.38;;;;;;;32.07;47.94;101493.22;2615931;54;20152;-67
2022/07/19 13:34:02;;;;;;;0.10;0.10;;;;;;;32.37;47.23;101497.03;2616208;54;20753;-70
2022/07/19 13:36:32;;;;;;;0.45;0.45;;;;;;;32.19;48.69;101494.22;2616222;54;20141;-67